sensor_id;sensor_type;location;lat;lon;timestamp;pressure;altitude;pressure_sealevel;temperature;humidity
13456;BME280;6800;50.940;6.940;2023-04-28T00:02:07;100547.72;;;23.35;29.31
13456;BME280;6800;50.940;6.940;2023-04-28T00:06:09;100539.13;;;23.17;30.92
13456;BME280;6800;50.940;6.940;2023-04-28T00:10:11;100548.53;;;23.52;30.56
13456;BME280;6800;50.940;6.940;2023-04-28T00:14:12;100529.91;;;23.36;29.86
13456;BME280;6800;50.940;6.940;2023-04-28T00:18:14;100533.16;;;23.62;29.61
13456;BME280;6800;50.940;6.940;2023-04-28T00:22:16;100538.38;;;22.76;30.39
13456;BME280;6800;50.940;6.940;2023-04-28T00:26:17;100531.41;;;23.30;29.86
13456;BME280;6800;50.940;6.940;2023-04-28T00:30:19;100519.72;;;22.92;30.62
13456;BME280;6800;50.940;6.940;2023-04-28T00:34:20;100499.56;;;22.98;30.65
13456;BME280;6800;50.940;6.940;2023-04-28T00:38:21;100497.63;;;23.39;29.91
13456;BME280;6800;50.940;6.940;2023-04-28T00:42:25;100488.31;;;23.35;29.86
13456;BME280;6800;50.940;6.940;2023-04-28T00:46:29;100488.06;;;22.97;31.20
13456;BME280;6800;50.940;6.940;2023-04-28T00:50:32;100477.94;;;23.40;30.25
13456;BME280;6800;50.940;6.940;2023-04-28T00:54:33;100484.81;;;23.18;30.19
13456;BME280;6800;50.940;6.940;2023-04-28T00:58:36;100481.44;;;23.40;29.85
13456;BME280;6800;50.940;6.940;2023-04-28T01:02:37;100480.28;;;23.43;29.90
13456;BME280;6800;50.940;6.940;2023-04-28T01:06:40;100483.78;;;22.96;31.09
13456;BME280;6800;50.940;6.940;2023-04-28T01:10:43;100483.84;;;23.58;32.61
13456;BME280;6800;50.940;6.940;2023-04-28T01:14:45;100484.13;;;23.32;33.58
13456;BME280;6800;50.940;6.940;2023-04-28T01:18:46;100475.22;;;23.09;34.62
13456;BME280;6800;50.940;6.940;2023-04-28T01:22:48;100487.31;;;22.57;34.88
13456;BME280;6800;50.940;6.940;2023-04-28T01:26:49;100483.13;;;22.78;35.86
13456;BME280;6800;50.940;6.940;2023-04-28T01:30:51;100478.69;;;22.38;36.88
13456;BME280;6800;50.940;6.940;2023-04-28T01:34:52;100478.00;;;22.44;38.56
13456;BME280;6800;50.940;6.940;2023-04-28T01:38:54;100473.34;;;22.46;37.41
13456;BME280;6800;50.940;6.940;2023-04-28T01:42:55;100474.22;;;22.39;37.76
13456;BME280;6800;50.940;6.940;2023-04-28T01:46:57;100472.19;;;21.85;38.59
13456;BME280;6800;50.940;6.940;2023-04-28T01:50:58;100469.56;;;22.33;37.86
13456;BME280;6800;50.940;6.940;2023-04-28T01:54:59;100461.41;;;22.34;37.79
13456;BME280;6800;50.940;6.940;2023-04-28T01:59:01;100466.75;;;22.26;37.36
13456;BME280;6800;50.940;6.940;2023-04-28T02:03:02;100476.22;;;22.05;38.37
13456;BME280;6800;50.940;6.940;2023-04-28T02:07:04;100477.34;;;22.18;37.61
13456;BME280;6800;50.940;6.940;2023-04-28T02:11:06;100475.88;;;22.00;38.56
13456;BME280;6800;50.940;6.940;2023-04-28T02:15:08;100473.72;;;22.19;38.21
13456;BME280;6800;50.940;6.940;2023-04-28T02:19:09;100471.00;;;21.79;38.86
13456;BME280;6800;50.940;6.940;2023-04-28T02:23:11;100472.72;;;22.20;37.69
13456;BME280;6800;50.940;6.940;2023-04-28T02:27:12;100475.41;;;22.20;37.91
13456;BME280;6800;50.940;6.940;2023-04-28T02:31:14;100457.91;;;22.10;37.93
13456;BME280;6800;50.940;6.940;2023-04-28T02:35:16;100465.09;;;21.35;39.22
13456;BME280;6800;50.940;6.940;2023-04-28T02:39:17;100461.25;;;21.96;38.52
13456;BME280;6800;50.940;6.940;2023-04-28T02:43:19;100455.81;;;21.31;39.61
13456;BME280;6800;50.940;6.940;2023-04-28T02:47:20;100457.09;;;21.27;39.81
13456;BME280;6800;50.940;6.940;2023-04-28T02:51:21;100449.19;;;21.51;39.65
13456;BME280;6800;50.940;6.940;2023-04-28T02:55:23;100449.47;;;21.82;38.64
13456;BME280;6800;50.940;6.940;2023-04-28T02:59:24;100450.59;;;21.80;38.53
13456;BME280;6800;50.940;6.940;2023-04-28T03:03:27;100448.25;;;21.76;38.99
13456;BME280;6800;50.940;6.940;2023-04-28T03:07:28;100436.81;;;22.00;39.01
13456;BME280;6800;50.940;6.940;2023-04-28T03:11:30;100438.28;;;21.70;38.79
13456;BME280;6800;50.940;6.940;2023-04-28T03:15:31;100439.16;;;21.29;40.34
13456;BME280;6800;50.940;6.940;2023-04-28T03:19:33;100432.28;;;21.52;40.06
13456;BME280;6800;50.940;6.940;2023-04-28T03:23:34;100430.69;;;21.92;38.59
13456;BME280;6800;50.940;6.940;2023-04-28T03:27:35;100431.63;;;21.74;38.66
13456;BME280;6800;50.940;6.940;2023-04-28T03:31:37;100433.63;;;21.81;38.40
13456;BME280;6800;50.940;6.940;2023-04-28T03:35:38;100432.00;;;21.96;38.44
13456;BME280;6800;50.940;6.940;2023-04-28T03:39:39;100432.22;;;21.28;40.24
13456;BME280;6800;50.940;6.940;2023-04-28T03:43:41;100413.56;;;20.78;41.46
13456;BME280;6800;50.940;6.940;2023-04-28T03:47:42;100399.69;;;21.34;41.57
13456;BME280;6800;50.940;6.940;2023-04-28T03:51:44;100391.91;;;21.33;41.39
13456;BME280;6800;50.940;6.940;2023-04-28T03:55:45;100388.09;;;20.93;42.53
13456;BME280;6800;50.940;6.940;2023-04-28T03:59:47;100386.56;;;20.83;42.65
13456;BME280;6800;50.940;6.940;2023-04-28T04:03:48;100367.16;;;20.49;42.72
13456;BME280;6800;50.940;6.940;2023-04-28T04:07:49;100353.97;;;20.57;43.17
13456;BME280;6800;50.940;6.940;2023-04-28T04:11:51;100332.25;;;20.28;43.50
13456;BME280;6800;50.940;6.940;2023-04-28T04:15:52;100320.31;;;20.23;43.67
13456;BME280;6800;50.940;6.940;2023-04-28T04:19:54;100321.25;;;20.90;42.61
13456;BME280;6800;50.940;6.940;2023-04-28T04:23:55;100333.06;;;20.62;42.71
13456;BME280;6800;50.940;6.940;2023-04-28T04:27:57;100361.88;;;20.90;42.55
13456;BME280;6800;50.940;6.940;2023-04-28T04:31:59;100359.34;;;21.23;41.14
13456;BME280;6800;50.940;6.940;2023-04-28T04:36:00;100349.53;;;21.15;41.57
13456;BME280;6800;50.940;6.940;2023-04-28T04:40:02;100340.06;;;21.21;41.10
13456;BME280;6800;50.940;6.940;2023-04-28T04:44:03;100345.91;;;21.24;41.10
13456;BME280;6800;50.940;6.940;2023-04-28T04:48:05;100336.31;;;21.47;40.17
13456;BME280;6800;50.940;6.940;2023-04-28T04:52:07;100330.81;;;21.49;40.95
13456;BME280;6800;50.940;6.940;2023-04-28T04:56:08;100334.16;;;20.85;42.07
13456;BME280;6800;50.940;6.940;2023-04-28T05:00:10;100335.59;;;20.63;41.61
13456;BME280;6800;50.940;6.940;2023-04-28T05:04:12;100353.19;;;21.22;40.78
13456;BME280;6800;50.940;6.940;2023-04-28T05:08:13;100351.56;;;20.87;41.09
13456;BME280;6800;50.940;6.940;2023-04-28T05:12:15;100359.34;;;20.39;42.08
13456;BME280;6800;50.940;6.940;2023-04-28T05:16:17;100354.34;;;21.20;40.58
13456;BME280;6800;50.940;6.940;2023-04-28T05:20:18;100342.59;;;21.38;41.07
13456;BME280;6800;50.940;6.940;2023-04-28T05:24:23;100341.63;;;21.88;40.67
13456;BME280;6800;50.940;6.940;2023-04-28T05:28:24;100330.44;;;21.04;41.21
13456;BME280;6800;50.940;6.940;2023-04-28T05:32:26;100335.41;;;21.15;41.31
13456;BME280;6800;50.940;6.940;2023-04-28T05:36:27;100339.66;;;20.99;41.45
13456;BME280;6800;50.940;6.940;2023-04-28T05:40:29;100347.69;;;21.08;41.72
13456;BME280;6800;50.940;6.940;2023-04-28T05:44:30;100351.53;;;20.71;43.02
13456;BME280;6800;50.940;6.940;2023-04-28T05:48:31;100341.81;;;20.88;42.91
13456;BME280;6800;50.940;6.940;2023-04-28T05:52:33;100330.63;;;21.18;43.70
13456;BME280;6800;50.940;6.940;2023-04-28T05:56:34;100327.84;;;21.52;43.04
13456;BME280;6800;50.940;6.940;2023-04-28T06:00:36;100320.00;;;21.26;44.58
13456;BME280;6800;50.940;6.940;2023-04-28T06:04:37;100325.69;;;21.39;42.93
13456;BME280;6800;50.940;6.940;2023-04-28T06:08:39;100316.22;;;22.01;42.31
13456;BME280;6800;50.940;6.940;2023-04-28T06:12:41;100318.34;;;21.98;42.16
13456;BME280;6800;50.940;6.940;2023-04-28T06:16:42;100318.88;;;21.29;42.59
13456;BME280;6800;50.940;6.940;2023-04-28T06:20:44;100319.53;;;21.87;42.25
13456;BME280;6800;50.940;6.940;2023-04-28T06:24:45;100317.50;;;21.97;42.55
13456;BME280;6800;50.940;6.940;2023-04-28T06:28:48;100320.84;;;21.91;42.11
13456;BME280;6800;50.940;6.940;2023-04-28T06:32:49;100324.00;;;21.78;42.67
13456;BME280;6800;50.940;6.940;2023-04-28T06:36:51;100325.00;;;21.94;42.09
13456;BME280;6800;50.940;6.940;2023-04-28T06:40:52;100323.69;;;21.41;42.83
13456;BME280;6800;50.940;6.940;2023-04-28T06:44:53;100330.31;;;21.61;42.04
13456;BME280;6800;50.940;6.940;2023-04-28T06:48:55;100334.75;;;21.05;43.58
13456;BME280;6800;50.940;6.940;2023-04-28T06:52:56;100322.50;;;22.00;41.87
13456;BME280;6800;50.940;6.940;2023-04-28T06:56:58;100316.84;;;21.79;41.96
13456;BME280;6800;50.940;6.940;2023-04-28T07:01:00;100316.94;;;22.34;40.80
13456;BME280;6800;50.940;6.940;2023-04-28T07:05:04;100324.66;;;21.89;41.49
13456;BME280;6800;50.940;6.940;2023-04-28T07:09:05;100335.78;;;22.71;40.80
13456;BME280;6800;50.940;6.940;2023-04-28T07:13:06;100337.28;;;21.78;41.63
13456;BME280;6800;50.940;6.940;2023-04-28T07:17:08;100331.50;;;22.62;41.14
13456;BME280;6800;50.940;6.940;2023-04-28T07:21:09;100330.50;;;22.94;41.08
13456;BME280;6800;50.940;6.940;2023-04-28T07:25:11;100334.66;;;21.95;41.83
13456;BME280;6800;50.940;6.940;2023-04-28T07:29:12;100339.28;;;21.85;42.29
13456;BME280;6800;50.940;6.940;2023-04-28T07:33:15;100332.81;;;21.79;42.48
13456;BME280;6800;50.940;6.940;2023-04-28T07:37:17;100338.13;;;22.97;40.13
13456;BME280;6800;50.940;6.940;2023-04-28T07:41:18;100332.13;;;23.03;40.60
13456;BME280;6800;50.940;6.940;2023-04-28T07:45:20;100335.31;;;23.21;39.18
13456;BME280;6800;50.940;6.940;2023-04-28T07:49:21;100326.19;;;24.21;39.26
13456;BME280;6800;50.940;6.940;2023-04-28T07:53:23;100324.88;;;24.46;39.06
13456;BME280;6800;50.940;6.940;2023-04-28T07:57:25;100320.31;;;23.28;39.30
13456;BME280;6800;50.940;6.940;2023-04-28T08:01:26;100325.16;;;23.70;38.70
13456;BME280;6800;50.940;6.940;2023-04-28T08:05:28;100317.38;;;23.97;38.03
13456;BME280;6800;50.940;6.940;2023-04-28T08:09:29;100327.09;;;24.28;37.52
13456;BME280;6800;50.940;6.940;2023-04-28T08:13:31;100313.25;;;26.09;36.61
13456;BME280;6800;50.940;6.940;2023-04-28T08:17:33;100308.50;;;26.80;33.27
13456;BME280;6800;50.940;6.940;2023-04-28T08:21:34;100318.88;;;25.93;34.45
13456;BME280;6800;50.940;6.940;2023-04-28T08:25:36;100314.00;;;24.91;36.56
13456;BME280;6800;50.940;6.940;2023-04-28T08:29:37;100316.97;;;25.38;36.60
13456;BME280;6800;50.940;6.940;2023-04-28T08:33:40;100307.78;;;25.26;37.96
13456;BME280;6800;50.940;6.940;2023-04-28T08:37:44;100300.16;;;25.93;36.52
13456;BME280;6800;50.940;6.940;2023-04-28T08:41:46;100313.88;;;26.11;36.12
13456;BME280;6800;50.940;6.940;2023-04-28T08:45:47;100313.38;;;25.74;35.72
13456;BME280;6800;50.940;6.940;2023-04-28T08:49:50;100326.34;;;26.04;35.54
13456;BME280;6800;50.940;6.940;2023-04-28T08:53:53;100326.59;;;25.18;36.71
13456;BME280;6800;50.940;6.940;2023-04-28T08:57:58;100326.94;;;25.72;37.32
13456;BME280;6800;50.940;6.940;2023-04-28T09:02:01;100328.75;;;25.44;38.26
13456;BME280;6800;50.940;6.940;2023-04-28T09:06:02;100330.47;;;24.95;39.89
13456;BME280;6800;50.940;6.940;2023-04-28T09:10:15;100332.19;;;25.02;39.84
13456;BME280;6800;50.940;6.940;2023-04-28T09:14:20;100328.28;;;24.40;40.89
13456;BME280;6800;50.940;6.940;2023-04-28T09:18:22;100327.47;;;24.68;40.73
13456;BME280;6800;50.940;6.940;2023-04-28T09:22:29;100331.50;;;24.06;42.78
13456;BME280;6800;50.940;6.940;2023-04-28T09:26:47;100322.78;;;24.12;43.33
13456;BME280;6800;50.940;6.940;2023-04-28T09:30:55;100331.91;;;23.95;44.07
13456;BME280;6800;50.940;6.940;2023-04-28T09:34:57;100325.28;;;24.28;44.36
13456;BME280;6800;50.940;6.940;2023-04-28T09:39:00;100318.63;;;24.53;44.29
13456;BME280;6800;50.940;6.940;2023-04-28T09:43:01;100316.34;;;24.36;44.19
13456;BME280;6800;50.940;6.940;2023-04-28T09:47:21;100316.56;;;23.97;45.24
13456;BME280;6800;50.940;6.940;2023-04-28T09:51:24;100321.16;;;24.03;45.04
13456;BME280;6800;50.940;6.940;2023-04-28T09:55:26;100316.59;;;24.26;44.84
13456;BME280;6800;50.940;6.940;2023-04-28T09:59:28;100325.63;;;24.54;44.71
13456;BME280;6800;50.940;6.940;2023-04-28T10:03:30;100321.50;;;25.02;43.66
13456;BME280;6800;50.940;6.940;2023-04-28T10:07:32;100323.31;;;24.81;44.71
13456;BME280;6800;50.940;6.940;2023-04-28T10:11:35;100322.19;;;24.02;46.56
13456;BME280;6800;50.940;6.940;2023-04-28T10:15:37;100318.97;;;24.65;45.73
13456;BME280;6800;50.940;6.940;2023-04-28T10:19:40;100315.72;;;25.20;44.66
13456;BME280;6800;50.940;6.940;2023-04-28T10:28:09;100308.00;;;25.46;44.10
13456;BME280;6800;50.940;6.940;2023-04-28T10:32:23;100304.63;;;25.86;43.73
13456;BME280;6800;50.940;6.940;2023-04-28T10:36:51;100306.91;;;25.19;44.84
13456;BME280;6800;50.940;6.940;2023-04-28T10:40:55;100305.19;;;25.54;44.29
13456;BME280;6800;50.940;6.940;2023-04-28T10:45:02;100303.63;;;25.66;43.57
13456;BME280;6800;50.940;6.940;2023-04-28T10:49:04;100305.09;;;26.24;42.68
13456;BME280;6800;50.940;6.940;2023-04-28T10:53:06;100292.25;;;26.47;42.31
13456;BME280;6800;50.940;6.940;2023-04-28T10:57:14;100296.00;;;26.53;41.45
13456;BME280;6800;50.940;6.940;2023-04-28T11:01:26;100294.91;;;26.88;42.13
13456;BME280;6800;50.940;6.940;2023-04-28T11:05:28;100289.59;;;27.01;41.49
13456;BME280;6800;50.940;6.940;2023-04-28T11:13:33;100282.66;;;27.39;40.52
13456;BME280;6800;50.940;6.940;2023-04-28T11:17:41;100269.44;;;27.83;41.39
13456;BME280;6800;50.940;6.940;2023-04-28T11:21:42;100270.16;;;28.30;38.91
13456;BME280;6800;50.940;6.940;2023-04-28T11:25:54;100269.28;;;28.93;39.80
13456;BME280;6800;50.940;6.940;2023-04-28T11:29:56;100258.84;;;28.21;39.49
13456;BME280;6800;50.940;6.940;2023-04-28T11:34:10;100254.69;;;28.76;39.33
13456;BME280;6800;50.940;6.940;2023-04-28T11:38:12;100250.00;;;29.03;38.95
13456;BME280;6800;50.940;6.940;2023-04-28T11:42:13;100259.34;;;28.56;38.70
13456;BME280;6800;50.940;6.940;2023-04-28T11:46:19;100258.41;;;28.82;38.53
13456;BME280;6800;50.940;6.940;2023-04-28T11:50:35;100250.72;;;28.41;40.10
13456;BME280;6800;50.940;6.940;2023-04-28T11:54:37;100252.19;;;28.81;39.60
13456;BME280;6800;50.940;6.940;2023-04-28T11:58:38;100257.25;;;29.33;37.28
13456;BME280;6800;50.940;6.940;2023-04-28T12:02:40;100261.63;;;29.28;38.94
13456;BME280;6800;50.940;6.940;2023-04-28T12:06:42;100242.31;;;29.62;36.81
13456;BME280;6800;50.940;6.940;2023-04-28T12:11:09;100241.06;;;29.65;36.58
13456;BME280;6800;50.940;6.940;2023-04-28T12:15:13;100237.00;;;30.17;37.03
13456;BME280;6800;50.940;6.940;2023-04-28T12:19:14;100234.38;;;30.10;36.34
13456;BME280;6800;50.940;6.940;2023-04-28T12:23:34;100224.28;;;30.71;36.10
13456;BME280;6800;50.940;6.940;2023-04-28T12:27:37;100229.06;;;30.22;36.22
13456;BME280;6800;50.940;6.940;2023-04-28T12:31:49;100225.09;;;30.06;36.22
13456;BME280;6800;50.940;6.940;2023-04-28T12:35:53;100221.75;;;29.68;37.35
13456;BME280;6800;50.940;6.940;2023-04-28T12:39:56;100220.78;;;30.05;36.36
13456;BME280;6800;50.940;6.940;2023-04-28T12:43:58;100221.00;;;30.69;36.13
13456;BME280;6800;50.940;6.940;2023-04-28T12:47:59;100207.44;;;30.28;35.56
13456;BME280;6800;50.940;6.940;2023-04-28T12:52:02;100210.53;;;30.32;36.14
13456;BME280;6800;50.940;6.940;2023-04-28T12:56:04;100208.31;;;30.22;35.49
13456;BME280;6800;50.940;6.940;2023-04-28T13:00:07;100197.34;;;30.24;37.04
13456;BME280;6800;50.940;6.940;2023-04-28T13:04:09;100198.59;;;30.39;35.06
13456;BME280;6800;50.940;6.940;2023-04-28T13:08:10;100204.38;;;29.14;38.74
13456;BME280;6800;50.940;6.940;2023-04-28T13:12:13;100190.63;;;28.35;40.49
13456;BME280;6800;50.940;6.940;2023-04-28T13:16:14;100189.06;;;30.07;36.99
13456;BME280;6800;50.940;6.940;2023-04-28T13:20:17;100192.09;;;29.00;38.09
13456;BME280;6800;50.940;6.940;2023-04-28T13:24:18;100192.19;;;28.87;39.10
13456;BME280;6800;50.940;6.940;2023-04-28T13:28:20;100188.75;;;28.74;38.79
13456;BME280;6800;50.940;6.940;2023-04-28T13:32:21;100188.31;;;30.00;36.54
13456;BME280;6800;50.940;6.940;2023-04-28T13:36:23;100180.38;;;30.05;36.75
13456;BME280;6800;50.940;6.940;2023-04-28T13:40:24;100185.00;;;30.34;36.33
13456;BME280;6800;50.940;6.940;2023-04-28T13:44:26;100176.56;;;29.02;39.20
13456;BME280;6800;50.940;6.940;2023-04-28T13:48:27;100176.78;;;29.50;38.23
13456;BME280;6800;50.940;6.940;2023-04-28T13:52:29;100167.09;;;29.67;37.77
13456;BME280;6800;50.940;6.940;2023-04-28T13:56:31;100163.38;;;29.68;37.66
13456;BME280;6800;50.940;6.940;2023-04-28T14:00:33;100149.22;;;29.55;38.14
13456;BME280;6800;50.940;6.940;2023-04-28T14:04:35;100149.00;;;30.11;36.44
13456;BME280;6800;50.940;6.940;2023-04-28T14:08:37;100150.44;;;30.13;36.46
13456;BME280;6800;50.940;6.940;2023-04-28T14:12:38;100141.13;;;30.27;35.53
13456;BME280;6800;50.940;6.940;2023-04-28T14:16:40;100139.41;;;30.62;35.35
13456;BME280;6800;50.940;6.940;2023-04-28T14:20:41;100134.03;;;30.62;34.81
13456;BME280;6800;50.940;6.940;2023-04-28T14:24:42;100136.31;;;30.47;33.66
13456;BME280;6800;50.940;6.940;2023-04-28T14:28:44;100150.28;;;30.08;34.00
13456;BME280;6800;50.940;6.940;2023-04-28T14:32:46;100150.53;;;30.06;33.28
13456;BME280;6800;50.940;6.940;2023-04-28T14:36:47;100146.97;;;30.24;33.20
13456;BME280;6800;50.940;6.940;2023-04-28T14:40:49;100140.19;;;30.93;31.88
13456;BME280;6800;50.940;6.940;2023-04-28T14:44:50;100142.09;;;30.92;31.75
13456;BME280;6800;50.940;6.940;2023-04-28T14:48:55;100144.97;;;30.20;32.43
13456;BME280;6800;50.940;6.940;2023-04-28T14:52:57;100140.78;;;30.53;32.80
13456;BME280;6800;50.940;6.940;2023-04-28T14:57:05;100148.41;;;29.72;33.30
13456;BME280;6800;50.940;6.940;2023-04-28T15:01:07;100147.00;;;30.06;33.31
13456;BME280;6800;50.940;6.940;2023-04-28T15:05:09;100143.75;;;29.86;33.53
13456;BME280;6800;50.940;6.940;2023-04-28T15:09:12;100139.03;;;30.29;32.97
13456;BME280;6800;50.940;6.940;2023-04-28T15:13:13;100152.13;;;29.35;33.96
13456;BME280;6800;50.940;6.940;2023-04-28T15:17:15;100146.97;;;29.70;33.88
13456;BME280;6800;50.940;6.940;2023-04-28T15:21:16;100152.03;;;29.84;32.79
13456;BME280;6800;50.940;6.940;2023-04-28T15:25:18;100155.47;;;29.91;33.35
13456;BME280;6800;50.940;6.940;2023-04-28T15:29:19;100169.44;;;29.82;33.23
13456;BME280;6800;50.940;6.940;2023-04-28T15:33:21;100175.81;;;29.63;33.84
13456;BME280;6800;50.940;6.940;2023-04-28T15:37:44;100177.72;;;28.88;35.12
13456;BME280;6800;50.940;6.940;2023-04-28T15:41:48;100197.34;;;29.45;34.27
13456;BME280;6800;50.940;6.940;2023-04-28T15:45:49;100218.44;;;28.61;35.28
13456;BME280;6800;50.940;6.940;2023-04-28T15:49:51;100209.63;;;28.78;35.00
13456;BME280;6800;50.940;6.940;2023-04-28T15:53:53;100212.13;;;29.04;35.51
13456;BME280;6800;50.940;6.940;2023-04-28T15:57:55;100228.81;;;28.88;35.84
13456;BME280;6800;50.940;6.940;2023-04-28T16:01:57;100235.63;;;28.40;36.22
13456;BME280;6800;50.940;6.940;2023-04-28T16:05:58;100244.41;;;28.73;35.73
13456;BME280;6800;50.940;6.940;2023-04-28T16:10:01;100256.91;;;28.48;35.22
13456;BME280;6800;50.940;6.940;2023-04-28T16:14:02;100265.66;;;28.17;36.27
13456;BME280;6800;50.940;6.940;2023-04-28T16:18:04;100277.50;;;27.38;37.08
13456;BME280;6800;50.940;6.940;2023-04-28T16:22:05;100292.06;;;27.09;37.29
13456;BME280;6800;50.940;6.940;2023-04-28T16:26:07;100297.41;;;26.96;37.45
13456;BME280;6800;50.940;6.940;2023-04-28T16:30:08;100297.03;;;27.25;36.56
13456;BME280;6800;50.940;6.940;2023-04-28T16:34:10;100304.41;;;26.90;37.06
13456;BME280;6800;50.940;6.940;2023-04-28T16:38:12;100321.78;;;26.67;37.44
13456;BME280;6800;50.940;6.940;2023-04-28T16:42:13;100317.41;;;27.06;36.44
13456;BME280;6800;50.940;6.940;2023-04-28T16:46:15;100312.78;;;27.35;35.64
13456;BME280;6800;50.940;6.940;2023-04-28T16:50:16;100323.63;;;26.60;36.64
13456;BME280;6800;50.940;6.940;2023-04-28T16:54:18;100321.56;;;26.62;35.69
13456;BME280;6800;50.940;6.940;2023-04-28T16:58:19;100323.66;;;27.20;35.47
13456;BME280;6800;50.940;6.940;2023-04-28T17:02:20;100330.06;;;27.32;34.96
13456;BME280;6800;50.940;6.940;2023-04-28T17:06:22;100328.41;;;27.31;35.15
13456;BME280;6800;50.940;6.940;2023-04-28T17:10:24;100346.47;;;26.96;35.62
13456;BME280;6800;50.940;6.940;2023-04-28T17:14:26;100343.91;;;26.75;35.51
13456;BME280;6800;50.940;6.940;2023-04-28T17:18:27;100341.94;;;26.97;35.31
13456;BME280;6800;50.940;6.940;2023-04-28T17:22:29;100348.31;;;26.55;35.95
13456;BME280;6800;50.940;6.940;2023-04-28T17:26:31;100357.97;;;26.84;35.53
13456;BME280;6800;50.940;6.940;2023-04-28T17:30:36;100355.47;;;26.42;36.52
13456;BME280;6800;50.940;6.940;2023-04-28T17:34:38;100355.91;;;26.86;35.83
13456;BME280;6800;50.940;6.940;2023-04-28T17:38:40;100359.59;;;26.85;35.62
13456;BME280;6800;50.940;6.940;2023-04-28T17:42:41;100364.63;;;26.60;35.80
13456;BME280;6800;50.940;6.940;2023-04-28T17:46:43;100373.22;;;26.21;36.52
13456;BME280;6800;50.940;6.940;2023-04-28T17:50:44;100379.94;;;26.39;36.56
13456;BME280;6800;50.940;6.940;2023-04-28T17:54:46;100366.91;;;26.01;37.03
13456;BME280;6800;50.940;6.940;2023-04-28T17:58:48;100377.84;;;26.27;36.30
13456;BME280;6800;50.940;6.940;2023-04-28T18:02:50;100375.56;;;26.31;36.45
13456;BME280;6800;50.940;6.940;2023-04-28T18:06:53;100384.44;;;26.32;36.38
13456;BME280;6800;50.940;6.940;2023-04-28T18:10:55;100379.72;;;26.34;36.52
13456;BME280;6800;50.940;6.940;2023-04-28T18:14:57;100384.16;;;26.54;36.31
13456;BME280;6800;50.940;6.940;2023-04-28T18:18:58;100382.88;;;26.44;36.74
13456;BME280;6800;50.940;6.940;2023-04-28T18:22:59;100388.06;;;26.52;36.32
13456;BME280;6800;50.940;6.940;2023-04-28T18:27:02;100394.47;;;26.23;36.93
13456;BME280;6800;50.940;6.940;2023-04-28T18:31:04;100404.50;;;26.14;37.23
13456;BME280;6800;50.940;6.940;2023-04-28T18:35:06;100401.03;;;26.20;37.17
13456;BME280;6800;50.940;6.940;2023-04-28T18:39:08;100408.13;;;26.35;37.16
13456;BME280;6800;50.940;6.940;2023-04-28T18:43:10;100410.66;;;26.15;37.44
13456;BME280;6800;50.940;6.940;2023-04-28T18:47:11;100414.91;;;26.30;36.69
13456;BME280;6800;50.940;6.940;2023-04-28T18:51:13;100426.72;;;25.94;37.80
13456;BME280;6800;50.940;6.940;2023-04-28T18:55:14;100423.09;;;26.01;37.64
13456;BME280;6800;50.940;6.940;2023-04-28T18:59:16;100422.69;;;26.04;37.90
13456;BME280;6800;50.940;6.940;2023-04-28T19:03:17;100417.31;;;25.98;37.75
13456;BME280;6800;50.940;6.940;2023-04-28T19:07:19;100425.44;;;25.90;37.89
13456;BME280;6800;50.940;6.940;2023-04-28T19:11:22;100425.28;;;25.70;38.62
13456;BME280;6800;50.940;6.940;2023-04-28T19:15:23;100430.78;;;25.69;38.35
13456;BME280;6800;50.940;6.940;2023-04-28T19:19:25;100427.06;;;25.63;39.08
13456;BME280;6800;50.940;6.940;2023-04-28T19:23:28;100426.72;;;25.94;38.26
13456;BME280;6800;50.940;6.940;2023-04-28T19:27:31;100433.47;;;25.90;37.90
13456;BME280;6800;50.940;6.940;2023-04-28T19:31:33;100435.72;;;25.86;38.60
13456;BME280;6800;50.940;6.940;2023-04-28T19:35:34;100439.84;;;25.89;38.51
13456;BME280;6800;50.940;6.940;2023-04-28T19:39:36;100451.88;;;25.78;38.36
13456;BME280;6800;50.940;6.940;2023-04-28T19:43:37;100448.81;;;25.60;38.87
13456;BME280;6800;50.940;6.940;2023-04-28T19:47:39;100442.31;;;25.69;38.94
13456;BME280;6800;50.940;6.940;2023-04-28T19:51:40;100452.41;;;25.88;38.55
13456;BME280;6800;50.940;6.940;2023-04-28T19:55:41;100446.59;;;26.06;38.00
13456;BME280;6800;50.940;6.940;2023-04-28T19:59:44;100459.00;;;25.71;39.15
13456;BME280;6800;50.940;6.940;2023-04-28T20:03:45;100458.06;;;25.79;38.61
13456;BME280;6800;50.940;6.940;2023-04-28T20:07:47;100463.09;;;25.88;38.46
13456;BME280;6800;50.940;6.940;2023-04-28T20:11:50;100461.47;;;25.87;38.46
13456;BME280;6800;50.940;6.940;2023-04-28T20:15:51;100466.53;;;25.82;38.62
13456;BME280;6800;50.940;6.940;2023-04-28T20:19:53;100465.69;;;25.82;38.45
13456;BME280;6800;50.940;6.940;2023-04-28T20:23:54;100464.16;;;26.08;38.18
13456;BME280;6800;50.940;6.940;2023-04-28T20:27:55;100462.19;;;25.81;38.26
13456;BME280;6800;50.940;6.940;2023-04-28T20:31:57;100463.47;;;26.06;37.77
13456;BME280;6800;50.940;6.940;2023-04-28T20:35:59;100466.06;;;26.14;37.99
13456;BME280;6800;50.940;6.940;2023-04-28T20:40:00;100468.38;;;25.82;38.91
13456;BME280;6800;50.940;6.940;2023-04-28T20:44:01;100467.19;;;25.84;38.90
13456;BME280;6800;50.940;6.940;2023-04-28T20:48:03;100479.66;;;25.77;38.59
13456;BME280;6800;50.940;6.940;2023-04-28T20:52:05;100474.94;;;25.79;38.79
13456;BME280;6800;50.940;6.940;2023-04-28T20:56:06;100485.28;;;25.03;40.37
13456;BME280;6800;50.940;6.940;2023-04-28T21:00:08;100484.69;;;25.66;39.78
13456;BME280;6800;50.940;6.940;2023-04-28T21:04:11;100485.47;;;25.66;39.35
13456;BME280;6800;50.940;6.940;2023-04-28T21:08:13;100487.84;;;25.40;40.06
13456;BME280;6800;50.940;6.940;2023-04-28T21:12:14;100482.22;;;25.35;40.12
13456;BME280;6800;50.940;6.940;2023-04-28T21:16:17;100484.00;;;25.42;40.23
13456;BME280;6800;50.940;6.940;2023-04-28T21:20:21;100489.69;;;25.39;40.07
13456;BME280;6800;50.940;6.940;2023-04-28T21:24:23;100485.53;;;25.37;40.40
13456;BME280;6800;50.940;6.940;2023-04-28T21:28:24;100492.00;;;25.13;40.72
13456;BME280;6800;50.940;6.940;2023-04-28T21:32:26;100490.81;;;25.16;40.50